Time;durP1;ratioP1;P1;durP2;ratioP2;P2;SDS_P1;SDS_P2;PMS_P1;PMS_P2;Temp;Humidity;BMP_temperature;BMP_pressure;BME280_temperature;BME280_humidity;BME280_pressure;Samples;Min_cycle;Max_cycle;Signal;HPM_P1;HPM_P2
2023/01/14 00:01:48;;;;;;;14.53;4.30;;;;;;;;;;5085001;28;20270;-51
2023/01/14 00:04:14;;;;;;;8.03;3.73;;;;;;;;;;5084784;28;20270;-52
2023/01/14 00:06:40;;;;;;;10.70;3.83;;;;;;;;;;5080333;28;20683;-51
2023/01/14 00:09:08;;;;;;;12.43;4.50;;;;;;;;;;5084219;28;20588;-52
2023/01/14 00:11:47;;;;;;;13.70;4.47;;;;;;;;;;5080868;28;20538;-52
2023/01/14 00:14:31;;;;;;;8.47;3.97;;;;;;;;;;5086765;28;20175;-51
2023/01/14 00:17:04;;;;;;;8.43;4.73;;;;;;;;;;5085526;28;20196;-51
2023/01/14 00:19:30;;;;;;;9.20;3.13;;;;;;;;;;5067105;28;20249;-54
2023/01/14 00:21:56;;;;;;;13.93;3.93;;;;;;;;;;5079758;28;20172;-53
2023/01/14 00:24:23;;;;;;;12.87;3.77;;;;;;;;;;5077803;28;20173;-53
2023/01/14 00:26:53;;;;;;;14.40;4.07;;;;;;;;;;5077305;28;20176;-51
2023/01/14 00:29:21;;;;;;;10.70;4.47;;;;;;;;;;5081316;28;20701;-52
2023/01/14 00:31:47;;;;;;;11.60;3.87;;;;;;;;;;5084154;28;20202;-51
2023/01/14 00:34:14;;;;;;;11.30;4.77;;;;;;;;;;5083161;28;20382;-52
2023/01/14 00:36:40;;;;;;;9.07;4.27;;;;;;;;;;5083163;28;20646;-52
2023/01/14 00:39:06;;;;;;;11.13;3.50;;;;;;;;;;5082402;27;20227;-52
2023/01/14 00:41:32;;;;;;;9.23;3.70;;;;;;;;;;5081141;28;20258;-51
2023/01/14 00:43:58;;;;;;;10.33;3.90;;;;;;;;;;5075785;28;20176;-51
2023/01/14 00:46:25;;;;;;;12.10;4.17;;;;;;;;;;5068961;28;20612;-51
2023/01/14 00:48:52;;;;;;;12.23;4.77;;;;;;;;;;5081105;28;20714;-52
2023/01/14 00:51:19;;;;;;;11.43;4.20;;;;;;;;;;5077372;28;20653;-51
2023/01/14 00:53:45;;;;;;;9.37;3.77;;;;;;;;;;5075778;28;20192;-53
2023/01/14 00:56:11;;;;;;;12.70;3.80;;;;;;;;;;5084256;28;20626;-53
2023/01/14 00:58:38;;;;;;;9.57;3.30;;;;;;;;;;5082999;28;20265;-50
2023/01/14 01:01:04;;;;;;;13.87;4.93;;;;;;;;;;5077409;28;20180;-51
2023/01/14 01:03:31;;;;;;;10.53;3.30;;;;;;;;;;5083618;28;20175;-51
2023/01/14 01:05:57;;;;;;;12.23;4.40;;;;;;;;;;5084159;28;20526;-52
2023/01/14 01:08:23;;;;;;;14.83;4.70;;;;;;;;;;5083072;28;20176;-51
2023/01/14 01:10:50;;;;;;;10.13;3.80;;;;;;;;;;5081114;28;20210;-51
2023/01/14 01:13:16;;;;;;;14.70;4.20;;;;;;;;;;5081461;28;20175;-52
2023/01/14 01:15:43;;;;;;;11.63;3.73;;;;;;;;;;5085711;28;20172;-51
2023/01/14 01:18:10;;;;;;;6.43;3.40;;;;;;;;;;5080667;28;21511;-53
2023/01/14 01:20:36;;;;;;;14.00;4.50;;;;;;;;;;5064737;28;20184;-50
2023/01/14 01:23:03;;;;;;;11.00;4.30;;;;;;;;;;5078912;28;20630;-51
2023/01/14 01:25:29;;;;;;;9.77;3.67;;;;;;;;;;5083431;28;20184;-52
2023/01/14 01:27:56;;;;;;;11.17;3.40;;;;;;;;;;5080065;28;20190;-51
2023/01/14 01:30:22;;;;;;;9.97;3.77;;;;;;;;;;5086194;28;20203;-51
2023/01/14 01:32:48;;;;;;;11.20;3.90;;;;;;;;;;5087984;28;20186;-51
2023/01/14 01:35:14;;;;;;;11.80;3.13;;;;;;;;;;5087609;28;20576;-51
2023/01/14 01:37:40;;;;;;;7.83;3.33;;;;;;;;;;5073759;28;20291;-52
2023/01/14 01:40:07;;;;;;;8.33;3.63;;;;;;;;;;5083274;28;20651;-51
2023/01/14 01:42:34;;;;;;;8.13;3.60;;;;;;;;;;5077730;28;20175;-51
2023/01/14 01:45:00;;;;;;;11.47;3.50;;;;;;;;;;5085641;28;20187;-52
2023/01/14 01:47:26;;;;;;;10.83;3.87;;;;;;;;;;5073172;28;20698;-53
2023/01/14 01:49:52;;;;;;;9.77;3.27;;;;;;;;;;5073749;28;20195;-51
2023/01/14 01:52:21;;;;;;;9.37;3.17;;;;;;;;;;5062106;28;20614;-51
2023/01/14 01:54:50;;;;;;;7.83;3.60;;;;;;;;;;5079696;28;20190;-53
2023/01/14 01:57:17;;;;;;;5.87;2.97;;;;;;;;;;5074933;28;20173;-51
2023/01/14 01:59:45;;;;;;;10.63;5.03;;;;;;;;;;5075027;28;20184;-53
2023/01/14 02:02:12;;;;;;;6.53;3.37;;;;;;;;;;5062864;28;20181;-52
2023/01/14 02:04:38;;;;;;;11.90;3.60;;;;;;;;;;5066669;28;20239;-51
2023/01/14 02:07:14;;;;;;;8.30;3.10;;;;;;;;;;5066453;28;20640;-51
2023/01/14 02:09:40;;;;;;;14.30;3.90;;;;;;;;;;5070950;28;20205;-51
2023/01/14 02:12:12;;;;;;;8.47;3.53;;;;;;;;;;5077249;28;20168;-51
2023/01/14 02:14:50;;;;;;;8.93;3.60;;;;;;;;;;5077489;28;20647;-51
2023/01/14 02:17:39;;;;;;;8.10;2.90;;;;;;;;;;5069508;28;20575;-52
2023/01/14 02:20:24;;;;;;;12.97;4.70;;;;;;;;;;5030470;28;20266;-51
2023/01/14 02:22:50;;;;;;;21.50;4.47;;;;;;;;;;5075098;28;20268;-52
2023/01/14 02:25:16;;;;;;;9.03;3.33;;;;;;;;;;5074596;28;20183;-51
2023/01/14 02:27:56;;;;;;;10.77;3.03;;;;;;;;;;5081919;28;20523;-51
2023/01/14 02:30:37;;;;;;;12.17;4.10;;;;;;;;;;5072625;28;20556;-51
2023/01/14 02:33:14;;;;;;;11.00;3.37;;;;;;;;;;5068180;28;20257;-51
2023/01/14 02:36:01;;;;;;;9.60;3.37;;;;;;;;;;5078257;28;20183;-51
2023/01/14 02:38:39;;;;;;;11.03;3.50;;;;;;;;;;5073886;28;20464;-51
2023/01/14 02:41:17;;;;;;;9.93;3.40;;;;;;;;;;5085174;28;20183;-52
2023/01/14 02:46:31;;;;;;;10.17;3.10;;;;;;;;;;5085777;28;20201;-50
2023/01/14 02:48:58;;;;;;;9.83;4.17;;;;;;;;;;5085219;28;20212;-53
2023/01/14 02:51:25;;;;;;;15.67;4.30;;;;;;;;;;5083838;28;20184;-51
2023/01/14 02:53:51;;;;;;;10.87;3.37;;;;;;;;;;5062479;28;20195;-51
2023/01/14 02:56:17;;;;;;;9.13;2.83;;;;;;;;;;5080861;28;20195;-51
2023/01/14 02:58:58;;;;;;;13.90;3.97;;;;;;;;;;5083872;28;20201;-51
2023/01/14 03:01:24;;;;;;;11.40;3.33;;;;;;;;;;5081062;28;20194;-52
2023/01/14 03:03:54;;;;;;;10.57;3.20;;;;;;;;;;5078714;28;20613;-51
2023/01/14 03:06:34;;;;;;;6.97;3.43;;;;;;;;;;5079960;28;20655;-51
2023/01/14 03:09:19;;;;;;;11.70;3.23;;;;;;;;;;5080773;28;20199;-51
2023/01/14 03:12:12;;;;;;;7.90;3.13;;;;;;;;;;5085230;28;20184;-50
2023/01/14 03:14:41;;;;;;;12.43;3.50;;;;;;;;;;5068449;28;20195;-52
2023/01/14 03:17:13;;;;;;;13.73;4.03;;;;;;;;;;5082849;28;20710;-50
2023/01/14 03:19:44;;;;;;;14.57;4.67;;;;;;;;;;5085659;28;20184;-52
2023/01/14 03:22:10;;;;;;;12.20;4.37;;;;;;;;;;5075667;28;20577;-51
2023/01/14 03:24:39;;;;;;;11.40;3.17;;;;;;;;;;5077204;28;20240;-51
2023/01/14 03:27:07;;;;;;;16.07;3.67;;;;;;;;;;5050145;28;20215;-53
2023/01/14 03:29:38;;;;;;;11.50;3.63;;;;;;;;;;5083162;28;20191;-51
2023/01/14 03:32:13;;;;;;;15.23;4.17;;;;;;;;;;5086079;28;20536;-52
2023/01/14 03:34:43;;;;;;;13.60;4.13;;;;;;;;;;5083949;28;20176;-52
2023/01/14 03:37:10;;;;;;;11.57;3.83;;;;;;;;;;5086818;28;20168;-51
2023/01/14 03:39:37;;;;;;;12.13;4.07;;;;;;;;;;5077708;28;20227;-52
2023/01/14 03:42:20;;;;;;;10.60;3.47;;;;;;;;;;5083695;28;20584;-51
2023/01/14 03:45:10;;;;;;;11.93;3.97;;;;;;;;;;5074173;28;20176;-52
2023/01/14 03:47:37;;;;;;;6.87;2.63;;;;;;;;;;5074323;28;20179;-51
2023/01/14 03:50:06;;;;;;;10.37;4.00;;;;;;;;;;5076968;28;20199;-51
2023/01/14 03:52:32;;;;;;;11.67;3.57;;;;;;;;;;5066300;28;20706;-52
2023/01/14 03:55:03;;;;;;;9.27;3.63;;;;;;;;;;5064365;28;20183;-51
2023/01/14 03:57:38;;;;;;;13.93;4.47;;;;;;;;;;5066524;28;20298;-51
2023/01/14 04:00:28;;;;;;;12.23;3.97;;;;;;;;;;5082456;28;20225;-51
2023/01/14 04:02:55;;;;;;;9.53;3.37;;;;;;;;;;5047014;28;20656;-51
2023/01/14 04:05:21;;;;;;;6.23;3.60;;;;;;;;;;5082964;28;20172;-52
2023/01/14 04:07:49;;;;;;;10.00;3.70;;;;;;;;;;5065152;28;20184;-51
2023/01/14 04:10:16;;;;;;;8.40;3.27;;;;;;;;;;5072718;28;20234;-51
2023/01/14 04:15:20;;;;;;;11.97;3.63;;;;;;;;;;5065719;28;20426;-52
2023/01/14 04:15:28;;;;;;;11.07;3.83;;;;;;;;;;5065895;28;20179;-52
2023/01/14 04:17:54;;;;;;;10.47;3.47;;;;;;;;;;5066298;28;20193;-52
2023/01/14 04:20:20;;;;;;;7.03;3.30;;;;;;;;;;5064449;28;20233;-52
2023/01/14 04:22:46;;;;;;;8.90;3.80;;;;;;;;;;5069762;28;20187;-52
2023/01/14 04:25:12;;;;;;;13.47;3.40;;;;;;;;;;5059963;28;20168;-51
2023/01/14 04:27:38;;;;;;;12.63;3.77;;;;;;;;;;5082924;28;20199;-51
2023/01/14 04:30:05;;;;;;;11.63;4.13;;;;;;;;;;5071773;28;21744;-51
2023/01/14 04:32:31;;;;;;;10.27;3.33;;;;;;;;;;5072191;28;20647;-51
2023/01/14 04:34:57;;;;;;;11.90;4.20;;;;;;;;;;5072158;28;20179;-51
2023/01/14 04:37:23;;;;;;;7.87;3.13;;;;;;;;;;5065637;28;20500;-54
2023/01/14 04:39:51;;;;;;;11.57;3.43;;;;;;;;;;5079494;28;20232;-53
2023/01/14 04:42:26;;;;;;;12.27;3.60;;;;;;;;;;5078642;28;20187;-51
2023/01/14 04:44:53;;;;;;;6.93;2.80;;;;;;;;;;5082836;28;20176;-52
2023/01/14 04:47:19;;;;;;;12.07;3.40;;;;;;;;;;5076144;28;20175;-51
2023/01/14 04:49:45;;;;;;;9.90;3.77;;;;;;;;;;5080341;28;20239;-53
2023/01/14 04:52:11;;;;;;;9.47;2.93;;;;;;;;;;5076716;28;20175;-50
2023/01/14 04:54:37;;;;;;;12.80;3.50;;;;;;;;;;5082063;28;20630;-52
2023/01/14 04:57:03;;;;;;;7.60;2.93;;;;;;;;;;5079862;28;20688;-50
2023/01/14 04:59:29;;;;;;;13.60;3.30;;;;;;;;;;5084880;28;20274;-53
2023/01/14 05:01:56;;;;;;;10.17;3.30;;;;;;;;;;5084684;28;20526;-50
2023/01/14 05:04:22;;;;;;;7.77;3.93;;;;;;;;;;5087989;28;20180;-52
2023/01/14 05:06:48;;;;;;;10.47;4.00;;;;;;;;;;5070563;28;20191;-51
2023/01/14 05:09:14;;;;;;;10.97;3.33;;;;;;;;;;5064192;28;20290;-51
2023/01/14 05:11:40;;;;;;;9.57;2.80;;;;;;;;;;5083402;28;20187;-52
2023/01/14 05:14:06;;;;;;;7.70;3.20;;;;;;;;;;5087127;28;20594;-52
2023/01/14 05:16:32;;;;;;;10.77;3.03;;;;;;;;;;5089487;28;20208;-51
2023/01/14 05:18:58;;;;;;;7.83;3.87;;;;;;;;;;5088053;28;20168;-52
2023/01/14 05:21:24;;;;;;;14.63;5.10;;;;;;;;;;5083584;28;20571;-52
2023/01/14 05:23:50;;;;;;;10.17;3.60;;;;;;;;;;5083040;28;20179;-52
2023/01/14 05:26:17;;;;;;;14.33;3.63;;;;;;;;;;5084525;28;20176;-51
2023/01/14 05:28:43;;;;;;;11.40;3.30;;;;;;;;;;5066959;28;20263;-51
2023/01/14 05:31:09;;;;;;;9.30;2.77;;;;;;;;;;5083882;28;20182;-53
2023/01/14 05:33:35;;;;;;;11.13;3.47;;;;;;;;;;5085677;28;20548;-51
2023/01/14 05:36:01;;;;;;;10.03;3.73;;;;;;;;;;5087131;28;20179;-51
2023/01/14 05:38:28;;;;;;;7.90;3.10;;;;;;;;;;5086163;28;20179;-51
2023/01/14 05:40:54;;;;;;;8.67;2.60;;;;;;;;;;5066370;28;20191;-51
2023/01/14 05:46:07;;;;;;;9.40;3.30;;;;;;;;;;5060184;28;20187;-51
2023/01/14 05:48:33;;;;;;;16.17;3.57;;;;;;;;;;5055120;28;20187;-51
2023/01/14 05:51:00;;;;;;;13.07;3.57;;;;;;;;;;5063973;28;20616;-51
2023/01/14 05:53:27;;;;;;;9.67;4.07;;;;;;;;;;5066488;28;20603;-50
2023/01/14 05:55:54;;;;;;;8.80;3.07;;;;;;;;;;5066109;28;20195;-51
2023/01/14 05:58:20;;;;;;;11.23;3.60;;;;;;;;;;5064306;28;20185;-50
2023/01/14 06:06:37;;;;;;;9.00;2.83;;;;;;;;;;5061207;28;20219;-52
2023/01/14 06:09:07;;;;;;;19.10;3.30;;;;;;;;;;5056323;28;20204;-52
2023/01/14 06:11:33;;;;;;;10.70;3.27;;;;;;;;;;5066594;28;20184;-51
2023/01/14 06:14:00;;;;;;;9.93;3.93;;;;;;;;;;5066697;28;20682;-51
2023/01/14 06:16:28;;;;;;;11.27;3.40;;;;;;;;;;5066439;28;20266;-53
2023/01/14 06:18:54;;;;;;;7.90;3.47;;;;;;;;;;5066915;28;20501;-50
2023/01/14 06:21:22;;;;;;;10.90;3.47;;;;;;;;;;5066917;28;20180;-52
2023/01/14 06:23:48;;;;;;;8.23;2.97;;;;;;;;;;5057808;28;20189;-50
2023/01/14 06:26:15;;;;;;;10.13;3.57;;;;;;;;;;5056366;28;20173;-50
2023/01/14 06:28:42;;;;;;;9.13;3.23;;;;;;;;;;5056472;28;20188;-52
2023/01/14 06:31:12;;;;;;;9.30;3.13;;;;;;;;;;5061974;28;20234;-52
2023/01/14 06:33:39;;;;;;;11.47;3.17;;;;;;;;;;5068481;28;20654;-52
2023/01/14 06:36:05;;;;;;;13.77;3.33;;;;;;;;;;5057398;28;20175;-51
2023/01/14 06:38:31;;;;;;;8.17;2.67;;;;;;;;;;5050918;28;20686;-51
2023/01/14 06:41:00;;;;;;;14.97;3.67;;;;;;;;;;5087035;28;20223;-52
2023/01/14 06:43:27;;;;;;;8.93;2.50;;;;;;;;;;5088566;28;20653;-50
2023/01/14 06:45:54;;;;;;;5.00;2.43;;;;;;;;;;5088444;28;20175;-52
2023/01/14 06:48:20;;;;;;;15.23;4.13;;;;;;;;;;5087018;28;20187;-51
2023/01/14 06:50:46;;;;;;;11.33;3.37;;;;;;;;;;5082136;28;20220;-50
2023/01/14 06:53:12;;;;;;;10.70;3.13;;;;;;;;;;5067495;28;20184;-50
2023/01/14 06:55:38;;;;;;;8.20;3.20;;;;;;;;;;5069653;28;20264;-52
2023/01/14 06:58:04;;;;;;;8.97;3.33;;;;;;;;;;5077947;28;20273;-51
2023/01/14 07:00:30;;;;;;;9.60;3.07;;;;;;;;;;5081505;28;20187;-52
2023/01/14 07:02:56;;;;;;;7.77;2.90;;;;;;;;;;5087322;28;20255;-50
2023/01/14 07:05:22;;;;;;;8.80;3.27;;;;;;;;;;5088303;28;20182;-51
2023/01/14 07:07:49;;;;;;;8.77;2.63;;;;;;;;;;5083393;28;20367;-50
2023/01/14 07:10:15;;;;;;;6.20;2.33;;;;;;;;;;5085689;28;20195;-51
2023/01/14 07:12:46;;;;;;;7.43;2.87;;;;;;;;;;5081291;28;20184;-52
2023/01/14 07:15:12;;;;;;;6.57;2.77;;;;;;;;;;5071710;28;20694;-51
2023/01/14 07:17:38;;;;;;;5.43;2.50;;;;;;;;;;5085133;28;20861;-51
2023/01/14 07:20:05;;;;;;;12.97;3.00;;;;;;;;;;5086447;28;20175;-51
2023/01/14 07:22:31;;;;;;;6.50;2.93;;;;;;;;;;5081166;28;20742;-52
2023/01/14 07:24:59;;;;;;;6.03;3.23;;;;;;;;;;5075906;28;20186;-50
2023/01/14 07:27:25;;;;;;;7.13;3.37;;;;;;;;;;5084792;28;20198;-52
2023/01/14 07:29:52;;;;;;;6.73;3.50;;;;;;;;;;5084211;28;20359;-51
2023/01/14 07:32:18;;;;;;;5.90;2.80;;;;;;;;;;5082847;28;20172;-53
2023/01/14 07:34:44;;;;;;;6.47;2.47;;;;;;;;;;5084173;28;20172;-52
2023/01/14 07:37:10;;;;;;;7.20;2.90;;;;;;;;;;5084217;28;20550;-53
2023/01/14 07:39:36;;;;;;;9.73;2.80;;;;;;;;;;5080166;28;20215;-53
2023/01/14 07:42:02;;;;;;;4.10;2.60;;;;;;;;;;5071545;28;20176;-53
2023/01/14 07:44:28;;;;;;;11.03;3.07;;;;;;;;;;5067093;28;20161;-53
2023/01/14 07:46:55;;;;;;;8.23;3.27;;;;;;;;;;5072181;28;20232;-52
2023/01/14 07:49:24;;;;;;;9.43;3.80;;;;;;;;;;5082749;28;20664;-52
2023/01/14 07:51:51;;;;;;;11.17;3.33;;;;;;;;;;5079386;28;20194;-53
2023/01/14 07:54:17;;;;;;;6.97;2.70;;;;;;;;;;5080699;28;20695;-51
2023/01/14 07:56:44;;;;;;;9.40;2.73;;;;;;;;;;5079517;28;20630;-51
2023/01/14 07:59:10;;;;;;;7.80;2.90;;;;;;;;;;5082723;28;20241;-51
2023/01/14 08:01:36;;;;;;;12.90;3.90;;;;;;;;;;5083915;28;20172;-53
2023/01/14 08:04:02;;;;;;;11.97;3.40;;;;;;;;;;5062690;28;20187;-53
2023/01/14 08:06:29;;;;;;;7.47;3.30;;;;;;;;;;5063108;28;20180;-52
2023/01/14 08:08:55;;;;;;;10.80;3.03;;;;;;;;;;5082078;28;20225;-53
2023/01/14 08:11:21;;;;;;;6.93;2.73;;;;;;;;;;5078187;28;20590;-52
2023/01/14 08:13:50;;;;;;;11.07;3.00;;;;;;;;;;5077358;28;20191;-50
2023/01/14 08:16:16;;;;;;;10.37;3.17;;;;;;;;;;5072146;28;20175;-54
2023/01/14 08:18:42;;;;;;;8.57;3.10;;;;;;;;;;5074108;28;20542;-51
2023/01/14 08:21:09;;;;;;;6.93;2.87;;;;;;;;;;5084669;28;20179;-51
2023/01/14 08:23:36;;;;;;;6.03;2.70;;;;;;;;;;5080489;28;20535;-51
2023/01/14 08:26:03;;;;;;;9.97;2.90;;;;;;;;;;5082868;28;20248;-53
2023/01/14 08:28:29;;;;;;;6.60;2.60;;;;;;;;;;5068081;28;20580;-52
2023/01/14 08:31:11;;;;;;;7.47;2.93;;;;;;;;;;5086149;28;20195;-57
2023/01/14 08:33:45;;;;;;;9.40;3.30;;;;;;;;;;5077867;28;20684;-51
2023/01/14 08:36:12;;;;;;;7.40;3.57;;;;;;;;;;5083985;28;20733;-51
2023/01/14 08:38:39;;;;;;;11.47;3.90;;;;;;;;;;5083847;28;21885;-51
2023/01/14 08:41:06;;;;;;;5.83;2.43;;;;;;;;;;5082282;27;20238;-51
2023/01/14 08:43:32;;;;;;;10.37;3.23;;;;;;;;;;5087471;28;20183;-51
2023/01/14 08:45:59;;;;;;;7.83;2.53;;;;;;;;;;5082822;28;20194;-51
2023/01/14 08:48:25;;;;;;;8.27;2.70;;;;;;;;;;5089283;28;20661;-52
2023/01/14 08:50:51;;;;;;;5.43;2.57;;;;;;;;;;5084565;28;20858;-51
2023/01/14 08:53:17;;;;;;;5.03;2.47;;;;;;;;;;5070535;28;20231;-51
2023/01/14 08:55:44;;;;;;;7.97;3.40;;;;;;;;;;5083577;28;20183;-52
2023/01/14 08:58:10;;;;;;;4.90;2.90;;;;;;;;;;5088603;28;20211;-53
2023/01/14 09:00:36;;;;;;;5.20;2.50;;;;;;;;;;5077803;28;20624;-51
2023/01/14 09:03:02;;;;;;;6.47;2.90;;;;;;;;;;5087264;28;20186;-53
2023/01/14 09:05:31;;;;;;;5.30;3.10;;;;;;;;;;5089984;28;20175;-52
2023/01/14 09:19:05;;;;;;;9.07;2.73;;;;;;;;;;5088329;28;20178;-52
2023/01/14 09:21:31;;;;;;;4.83;2.50;;;;;;;;;;5088682;28;20650;-53
2023/01/14 09:23:57;;;;;;;6.03;2.83;;;;;;;;;;5087535;28;20186;-52
2023/01/14 09:26:23;;;;;;;10.67;2.13;;;;;;;;;;5083459;28;20172;-52
2023/01/14 09:28:50;;;;;;;4.30;2.00;;;;;;;;;;5061148;28;20281;-51
2023/01/14 09:31:16;;;;;;;5.83;2.50;;;;;;;;;;5078551;28;20211;-52
2023/01/14 09:33:42;;;;;;;3.93;2.50;;;;;;;;;;5086986;28;20295;-53
2023/01/14 09:36:08;;;;;;;4.50;2.40;;;;;;;;;;5082175;28;20279;-53
2023/01/14 09:38:34;;;;;;;7.70;3.03;;;;;;;;;;5074542;28;20212;-51
2023/01/14 09:41:00;;;;;;;5.73;2.53;;;;;;;;;;5081299;28;20324;-52
2023/01/14 09:43:29;;;;;;;4.57;2.47;;;;;;;;;;5088882;28;20175;-53
2023/01/14 09:45:59;;;;;;;7.73;2.50;;;;;;;;;;5084537;28;20598;-52
2023/01/14 09:48:25;;;;;;;8.37;2.20;;;;;;;;;;5084677;28;20167;-52
2023/01/14 09:50:51;;;;;;;4.57;2.30;;;;;;;;;;5082545;28;20192;-52
2023/01/14 09:53:34;;;;;;;6.63;2.20;;;;;;;;;;5087617;28;20895;-53
2023/01/14 09:56:02;;;;;;;8.87;2.63;;;;;;;;;;5089193;28;20164;-52
2023/01/14 09:58:28;;;;;;;5.03;2.13;;;;;;;;;;5079089;28;20677;-52
2023/01/14 10:00:55;;;;;;;5.93;2.40;;;;;;;;;;5070582;28;20173;-52
2023/01/14 10:03:25;;;;;;;6.83;2.83;;;;;;;;;;5087400;28;20645;-52
2023/01/14 10:05:55;;;;;;;5.50;1.77;;;;;;;;;;5081179;28;20229;-52
2023/01/14 10:08:22;;;;;;;5.43;2.30;;;;;;;;;;5068697;28;20165;-52
2023/01/14 10:10:49;;;;;;;3.27;1.90;;;;;;;;;;5079642;28;20896;-52
2023/01/14 10:13:28;;;;;;;2.67;2.23;;;;;;;;;;5087983;28;20531;-52
2023/01/14 10:15:56;;;;;;;4.10;2.40;;;;;;;;;;5086236;28;20621;-53
2023/01/14 10:18:34;;;;;;;4.30;1.77;;;;;;;;;;5077348;28;20281;-52
2023/01/14 10:21:02;;;;;;;4.90;2.23;;;;;;;;;;5085698;28;20182;-52
2023/01/14 10:23:40;;;;;;;4.03;2.23;;;;;;;;;;5087529;28;20989;-51
2023/01/14 10:26:14;;;;;;;3.90;2.20;;;;;;;;;;5082345;28;20601;-53
2023/01/14 10:28:41;;;;;;;4.43;2.27;;;;;;;;;;5068456;28;20172;-51
2023/01/14 10:31:07;;;;;;;4.90;2.37;;;;;;;;;;5071291;28;20219;-52
2023/01/14 10:33:33;;;;;;;5.47;2.37;;;;;;;;;;5085367;28;20184;-52
2023/01/14 10:36:03;;;;;;;2.20;2.00;;;;;;;;;;5084276;28;20180;-51
2023/01/14 10:38:29;;;;;;;3.83;2.07;;;;;;;;;;5086196;28;20674;-51
2023/01/14 10:40:58;;;;;;;4.60;2.10;;;;;;;;;;5088416;28;20639;-51
2023/01/14 10:43:27;;;;;;;4.90;1.40;;;;;;;;;;5085225;28;20625;-54
2023/01/14 10:45:53;;;;;;;3.43;1.57;;;;;;;;;;5071932;28;20176;-52
2023/01/14 10:48:21;;;;;;;2.33;1.67;;;;;;;;;;5079548;28;20482;-53
2023/01/14 10:50:47;;;;;;;3.30;1.70;;;;;;;;;;5081606;28;20199;-53
2023/01/14 10:53:23;;;;;;;2.77;1.93;;;;;;;;;;5074957;28;20195;-52
2023/01/14 10:55:55;;;;;;;3.33;2.13;;;;;;;;;;5068728;28;20176;-52
2023/01/14 10:58:26;;;;;;;5.10;1.97;;;;;;;;;;5085633;28;20641;-51
2023/01/14 11:00:58;;;;;;;2.10;1.30;;;;;;;;;;5088527;28;20156;-51
2023/01/14 11:03:29;;;;;;;3.87;1.50;;;;;;;;;;5087700;28;20235;-51
2023/01/14 11:05:58;;;;;;;1.53;1.40;;;;;;;;;;5088153;28;20172;-52
2023/01/14 11:08:31;;;;;;;3.47;1.53;;;;;;;;;;5068553;28;20177;-52
2023/01/14 11:10:59;;;;;;;4.07;1.90;;;;;;;;;;5087225;28;20199;-52
2023/01/14 11:13:26;;;;;;;4.53;1.47;;;;;;;;;;5087142;28;20693;-52
2023/01/14 11:15:52;;;;;;;3.63;2.33;;;;;;;;;;5087770;28;20576;-52
2023/01/14 11:18:18;;;;;;;2.57;1.57;;;;;;;;;;5087581;28;20192;-53
2023/01/14 11:21:03;;;;;;;3.93;1.60;;;;;;;;;;5087935;28;20168;-51
2023/01/14 11:23:31;;;;;;;2.97;1.43;;;;;;;;;;5086842;28;20243;-52
2023/01/14 11:26:00;;;;;;;6.20;2.13;;;;;;;;;;5087497;28;20157;-51
2023/01/14 11:28:26;;;;;;;4.00;1.30;;;;;;;;;;5087288;28;20171;-52
2023/01/14 11:30:54;;;;;;;2.57;1.37;;;;;;;;;;5087362;28;20673;-52
2023/01/14 11:33:21;;;;;;;3.23;1.40;;;;;;;;;;5087579;28;20614;-53
2023/01/14 11:35:57;;;;;;;1.87;1.50;;;;;;;;;;5087341;28;20160;-53
2023/01/14 11:38:26;;;;;;;1.60;1.50;;;;;;;;;;5068431;28;20172;-51
2023/01/14 11:43:56;;;;;;;2.13;1.73;;;;;;;;;;5070832;28;20246;-53
2023/01/14 11:46:22;;;;;;;2.87;1.90;;;;;;;;;;5067114;28;20164;-52
2023/01/14 11:48:58;;;;;;;2.93;1.67;;;;;;;;;;5049292;28;20176;-52
2023/01/14 11:51:25;;;;;;;4.13;1.70;;;;;;;;;;5059494;28;20706;-53
2023/01/14 11:53:52;;;;;;;4.53;1.60;;;;;;;;;;5085105;28;20168;-54
2023/01/14 11:56:23;;;;;;;4.53;2.00;;;;;;;;;;5087284;28;20156;-52
2023/01/14 11:58:49;;;;;;;2.53;1.40;;;;;;;;;;5087087;28;20164;-52
2023/01/14 12:01:27;;;;;;;4.17;1.90;;;;;;;;;;5087376;28;20171;-53
2023/01/14 12:04:05;;;;;;;3.07;1.40;;;;;;;;;;5087036;28;20160;-52
2023/01/14 12:06:37;;;;;;;2.13;1.93;;;;;;;;;;5087322;28;20166;-52
2023/01/14 12:09:05;;;;;;;4.17;1.63;;;;;;;;;;5086281;28;20536;-52
2023/01/14 12:11:54;;;;;;;1.60;1.50;;;;;;;;;;5086918;28;20176;-54
2023/01/14 12:17:11;;;;;;;2.63;2.10;;;;;;;;;;5066755;28;20280;-53
2023/01/14 12:19:37;;;;;;;4.57;1.97;;;;;;;;;;5066582;28;20169;-52
2023/01/14 12:22:07;;;;;;;4.10;1.80;;;;;;;;;;5066943;28;20188;-53
2023/01/14 12:24:39;;;;;;;3.03;1.60;;;;;;;;;;5065530;28;20210;-52
2023/01/14 12:27:06;;;;;;;2.97;1.70;;;;;;;;;;5066947;28;20597;-52
2023/01/14 12:29:35;;;;;;;2.33;1.63;;;;;;;;;;5066763;28;20259;-52
2023/01/14 12:32:04;;;;;;;1.73;1.60;;;;;;;;;;5066851;28;20188;-52
2023/01/14 12:34:33;;;;;;;4.77;1.90;;;;;;;;;;5066593;28;20191;-52
2023/01/14 12:37:10;;;;;;;1.87;1.50;;;;;;;;;;5066738;28;20161;-53
2023/01/14 12:45:44;;;;;;;2.30;1.50;;;;;;;;;;5087035;28;20163;-54
2023/01/14 12:48:11;;;;;;;2.60;1.50;;;;;;;;;;5087149;28;20164;-52
2023/01/14 12:50:42;;;;;;;2.30;1.70;;;;;;;;;;5082501;28;20560;-53
2023/01/14 12:53:16;;;;;;;2.03;1.37;;;;;;;;;;5065924;28;20230;-52
2023/01/14 12:55:45;;;;;;;2.60;1.77;;;;;;;;;;5066062;28;20523;-54
2023/01/14 12:58:19;;;;;;;1.90;1.80;;;;;;;;;;5066418;28;20255;-54
2023/01/14 13:00:49;;;;;;;2.57;1.80;;;;;;;;;;5066564;28;20642;-53
2023/01/14 13:03:20;;;;;;;3.80;2.33;;;;;;;;;;5066808;28;20547;-53
2023/01/14 13:05:46;;;;;;;2.47;1.57;;;;;;;;;;5066412;28;20160;-54
2023/01/14 13:08:35;;;;;;;4.07;1.50;;;;;;;;;;5047685;28;20165;-53
2023/01/14 13:11:07;;;;;;;1.70;1.60;;;;;;;;;;5066642;28;20201;-52
2023/01/14 13:13:34;;;;;;;4.03;1.57;;;;;;;;;;5066582;28;20191;-52
2023/01/14 13:16:01;;;;;;;1.53;1.43;;;;;;;;;;5066307;28;20155;-51
2023/01/14 13:18:34;;;;;;;3.37;1.40;;;;;;;;;;5065781;28;20184;-52
2023/01/14 13:21:00;;;;;;;3.83;1.83;;;;;;;;;;5048380;28;20671;-53
2023/01/14 13:23:44;;;;;;;1.60;1.50;;;;;;;;;;5068729;28;20615;-52
2023/01/14 13:26:20;;;;;;;5.20;1.53;;;;;;;;;;5069670;28;20172;-52
2023/01/14 13:29:05;;;;;;;2.67;1.80;;;;;;;;;;5069834;28;20175;-53
2023/01/14 13:31:35;;;;;;;1.50;1.40;;;;;;;;;;5069596;28;20624;-52
2023/01/14 13:34:19;;;;;;;2.33;1.60;;;;;;;;;;5069512;28;20164;-52
2023/01/14 13:36:46;;;;;;;3.00;1.50;;;;;;;;;;5069846;28;20184;-55
2023/01/14 13:39:12;;;;;;;3.00;1.80;;;;;;;;;;5068473;28;20168;-55
2023/01/14 13:41:39;;;;;;;2.30;1.53;;;;;;;;;;5071462;28;20787;-53
2023/01/14 13:44:06;;;;;;;2.70;1.70;;;;;;;;;;5069570;28;20149;-54
2023/01/14 13:46:34;;;;;;;2.33;1.77;;;;;;;;;;5069839;28;20222;-52
2023/01/14 13:49:01;;;;;;;1.90;1.80;;;;;;;;;;5069449;28;20188;-52
2023/01/14 13:51:48;;;;;;;1.70;1.60;;;;;;;;;;5080442;28;20300;-52
2023/01/14 13:54:19;;;;;;;1.40;1.30;;;;;;;;;;5070107;28;20630;-52
2023/01/14 13:56:47;;;;;;;2.30;1.40;;;;;;;;;;5089521;28;20175;-52
2023/01/14 13:59:21;;;;;;;1.73;1.50;;;;;;;;;;5089240;28;20168;-52
2023/01/14 14:01:48;;;;;;;1.97;1.80;;;;;;;;;;5089682;28;20390;-53
2023/01/14 14:04:34;;;;;;;1.90;1.30;;;;;;;;;;5089224;28;20658;-53
2023/01/14 14:07:00;;;;;;;1.53;1.43;;;;;;;;;;5089398;28;20634;-52
2023/01/14 14:09:31;;;;;;;2.13;1.63;;;;;;;;;;5088381;28;20247;-52
2023/01/14 14:11:57;;;;;;;2.57;1.83;;;;;;;;;;5072436;28;20797;-52
2023/01/14 14:14:29;;;;;;;1.60;1.50;;;;;;;;;;5050829;28;20197;-53
2023/01/14 14:16:57;;;;;;;1.53;1.40;;;;;;;;;;5068635;28;20184;-52
2023/01/14 14:19:43;;;;;;;1.70;1.60;;;;;;;;;;5068341;28;20161;-52
2023/01/14 14:22:21;;;;;;;1.87;1.40;;;;;;;;;;5068650;28;20398;-52
2023/01/14 14:24:57;;;;;;;1.83;1.73;;;;;;;;;;5067427;28;20651;-51
2023/01/14 14:27:24;;;;;;;2.20;1.73;;;;;;;;;;5068326;28;20160;-52
2023/01/14 14:29:50;;;;;;;1.50;1.40;;;;;;;;;;5068197;28;20219;-53
2023/01/14 14:32:26;;;;;;;4.03;1.70;;;;;;;;;;5074287;28;20176;-53
2023/01/14 14:35:10;;;;;;;1.60;1.40;;;;;;;;;;5088598;28;20170;-53
2023/01/14 14:37:37;;;;;;;2.23;1.60;;;;;;;;;;5087444;28;20156;-53
2023/01/14 14:40:05;;;;;;;2.07;1.37;;;;;;;;;;5088691;28;20703;-52
2023/01/14 14:42:33;;;;;;;1.40;1.30;;;;;;;;;;5088479;28;20248;-53
2023/01/14 14:44:59;;;;;;;1.50;1.40;;;;;;;;;;5088069;28;20164;-53
2023/01/14 14:47:27;;;;;;;2.37;1.70;;;;;;;;;;5088292;28;20230;-52
2023/01/14 14:49:54;;;;;;;3.03;1.77;;;;;;;;;;5088398;28;20584;-52
2023/01/14 14:52:20;;;;;;;1.97;1.70;;;;;;;;;;5069997;28;20583;-53
2023/01/14 14:54:47;;;;;;;2.57;1.50;;;;;;;;;;5067240;28;20248;-53
2023/01/14 14:57:24;;;;;;;2.80;1.97;;;;;;;;;;5068160;28;20149;-52
2023/01/14 14:59:53;;;;;;;2.50;2.30;;;;;;;;;;5068220;28;20176;-52
2023/01/14 15:02:24;;;;;;;4.60;2.73;;;;;;;;;;5074085;28;20712;-53
2023/01/14 15:04:52;;;;;;;1.70;1.60;;;;;;;;;;5069968;28;20176;-53
2023/01/14 15:07:19;;;;;;;1.77;1.60;;;;;;;;;;5087911;28;20520;-53
2023/01/14 15:09:46;;;;;;;1.53;1.40;;;;;;;;;;5086163;28;20286;-53
2023/01/14 15:12:16;;;;;;;2.23;1.83;;;;;;;;;;5087092;28;20163;-52
2023/01/14 15:14:50;;;;;;;1.70;1.50;;;;;;;;;;5087403;28;20148;-52
2023/01/14 15:17:19;;;;;;;1.30;1.20;;;;;;;;;;5087875;28;20286;-52
2023/01/14 15:19:48;;;;;;;1.60;1.50;;;;;;;;;;5087346;28;20175;-54
2023/01/14 15:22:16;;;;;;;2.43;2.23;;;;;;;;;;5088073;28;20603;-52
2023/01/14 15:24:42;;;;;;;1.47;1.30;;;;;;;;;;5068196;28;20695;-52